sensor_id;sensor_type;location;lat;lon;timestamp;P1;durP1;ratioP1;P2;durP2;ratioP2
215;SDS011;45701;48.81287245;9.14186865;2022-07-18T00:01:39;9.23;;;3.40;;
215;SDS011;45701;48.81287245;9.14186865;2022-07-18T00:04:07;7.60;;;3.40;;
215;SDS011;45701;48.81287245;9.14186865;2022-07-18T00:06:34;6.17;;;3.50;;
215;SDS011;45701;48.81287245;9.14186865;2022-07-18T00:09:01;6.93;;;3.50;;
215;SDS011;45701;48.81287245;9.14186865;2022-07-18T00:11:28;6.53;;;3.50;;
215;SDS011;45701;48.81287245;9.14186865;2022-07-18T00:13:55;8.17;;;3.40;;
215;SDS011;45701;48.81287245;9.14186865;2022-07-18T00:16:22;11.93;;;3.50;;
215;SDS011;45701;48.81287245;9.14186865;2022-07-18T00:18:49;7.17;;;3.77;;
215;SDS011;45701;48.81287245;9.14186865;2022-07-18T00:21:17;8.27;;;4.00;;
215;SDS011;45701;48.81287245;9.14186865;2022-07-18T00:23:44;5.50;;;3.30;;
215;SDS011;45701;48.81287245;9.14186865;2022-07-18T00:26:10;5.67;;;3.40;;
215;SDS011;45701;48.81287245;9.14186865;2022-07-18T00:28:37;9.43;;;3.50;;
215;SDS011;45701;48.81287245;9.14186865;2022-07-18T00:31:04;5.03;;;3.30;;
215;SDS011;45701;48.81287245;9.14186865;2022-07-18T00:33:30;6.37;;;3.50;;
215;SDS011;45701;48.81287245;9.14186865;2022-07-18T00:35:57;7.43;;;3.77;;
215;SDS011;45701;48.81287245;9.14186865;2022-07-18T00:38:25;6.60;;;3.90;;
215;SDS011;45701;48.81287245;9.14186865;2022-07-18T00:40:52;5.70;;;3.40;;
215;SDS011;45701;48.81287245;9.14186865;2022-07-18T00:43:18;6.50;;;3.70;;
215;SDS011;45701;48.81287245;9.14186865;2022-07-18T00:45:45;7.27;;;3.53;;
215;SDS011;45701;48.81287245;9.14186865;2022-07-18T00:48:13;7.93;;;3.60;;
215;SDS011;45701;48.81287245;9.14186865;2022-07-18T00:50:41;8.60;;;3.60;;
215;SDS011;45701;48.81287245;9.14186865;2022-07-18T00:53:09;7.23;;;3.20;;
215;SDS011;45701;48.81287245;9.14186865;2022-07-18T00:55:38;6.03;;;3.40;;
215;SDS011;45701;48.81287245;9.14186865;2022-07-18T00:58:06;5.90;;;3.60;;
215;SDS011;45701;48.81287245;9.14186865;2022-07-18T01:00:33;7.27;;;3.80;;
215;SDS011;45701;48.81287245;9.14186865;2022-07-18T01:03:18;9.07;;;3.40;;
215;SDS011;45701;48.81287245;9.14186865;2022-07-18T01:05:45;6.23;;;3.20;;
215;SDS011;45701;48.81287245;9.14186865;2022-07-18T01:08:12;6.97;;;3.50;;
215;SDS011;45701;48.81287245;9.14186865;2022-07-18T01:10:40;7.37;;;3.63;;
215;SDS011;45701;48.81287245;9.14186865;2022-07-18T01:13:07;9.73;;;3.67;;
215;SDS011;45701;48.81287245;9.14186865;2022-07-18T01:15:34;6.50;;;4.00;;
215;SDS011;45701;48.81287245;9.14186865;2022-07-18T01:18:01;6.60;;;3.70;;
215;SDS011;45701;48.81287245;9.14186865;2022-07-18T01:20:30;6.40;;;3.70;;
215;SDS011;45701;48.81287245;9.14186865;2022-07-18T01:22:58;9.13;;;3.70;;
215;SDS011;45701;48.81287245;9.14186865;2022-07-18T01:25:25;5.33;;;3.63;;
215;SDS011;45701;48.81287245;9.14186865;2022-07-18T01:27:53;9.70;;;4.03;;
215;SDS011;45701;48.81287245;9.14186865;2022-07-18T01:30:20;6.43;;;3.60;;
215;SDS011;45701;48.81287245;9.14186865;2022-07-18T01:32:53;7.97;;;3.60;;
215;SDS011;45701;48.81287245;9.14186865;2022-07-18T01:35:21;6.00;;;3.57;;
215;SDS011;45701;48.81287245;9.14186865;2022-07-18T01:37:50;6.20;;;3.63;;
215;SDS011;45701;48.81287245;9.14186865;2022-07-18T01:40:17;7.83;;;3.67;;
215;SDS011;45701;48.81287245;9.14186865;2022-07-18T01:42:45;6.73;;;3.60;;
215;SDS011;45701;48.81287245;9.14186865;2022-07-18T01:45:12;8.70;;;4.20;;
215;SDS011;45701;48.81287245;9.14186865;2022-07-18T01:47:39;6.67;;;3.70;;
215;SDS011;45701;48.81287245;9.14186865;2022-07-18T01:50:06;10.00;;;3.63;;
215;SDS011;45701;48.81287245;9.14186865;2022-07-18T01:52:34;8.83;;;3.83;;
215;SDS011;45701;48.81287245;9.14186865;2022-07-18T01:55:03;5.87;;;3.50;;
215;SDS011;45701;48.81287245;9.14186865;2022-07-18T01:57:31;6.70;;;3.90;;
215;SDS011;45701;48.81287245;9.14186865;2022-07-18T01:59:58;5.30;;;3.40;;
215;SDS011;45701;48.81287245;9.14186865;2022-07-18T02:02:24;7.20;;;3.40;;
215;SDS011;45701;48.81287245;9.14186865;2022-07-18T02:04:51;6.93;;;3.60;;
215;SDS011;45701;48.81287245;9.14186865;2022-07-18T02:07:28;6.17;;;3.60;;
215;SDS011;45701;48.81287245;9.14186865;2022-07-18T02:09:57;8.57;;;3.70;;
215;SDS011;45701;48.81287245;9.14186865;2022-07-18T02:12:25;9.57;;;4.00;;
215;SDS011;45701;48.81287245;9.14186865;2022-07-18T02:14:52;8.93;;;3.40;;
215;SDS011;45701;48.81287245;9.14186865;2022-07-18T02:17:19;7.30;;;3.80;;
215;SDS011;45701;48.81287245;9.14186865;2022-07-18T02:19:46;6.03;;;3.43;;
215;SDS011;45701;48.81287245;9.14186865;2022-07-18T02:22:13;7.73;;;3.47;;
215;SDS011;45701;48.81287245;9.14186865;2022-07-18T02:24:39;7.53;;;3.57;;
215;SDS011;45701;48.81287245;9.14186865;2022-07-18T02:27:06;8.27;;;3.70;;
215;SDS011;45701;48.81287245;9.14186865;2022-07-18T02:29:36;6.73;;;3.80;;
215;SDS011;45701;48.81287245;9.14186865;2022-07-18T02:32:03;6.73;;;3.53;;
215;SDS011;45701;48.81287245;9.14186865;2022-07-18T02:34:30;11.00;;;3.77;;
215;SDS011;45701;48.81287245;9.14186865;2022-07-18T02:36:57;4.80;;;3.27;;
215;SDS011;45701;48.81287245;9.14186865;2022-07-18T02:39:23;9.23;;;3.50;;
215;SDS011;45701;48.81287245;9.14186865;2022-07-18T02:41:50;5.10;;;3.47;;
215;SDS011;45701;48.81287245;9.14186865;2022-07-18T02:44:17;6.17;;;3.57;;
215;SDS011;45701;48.81287245;9.14186865;2022-07-18T02:46:45;7.67;;;3.80;;
215;SDS011;45701;48.81287245;9.14186865;2022-07-18T02:49:11;6.57;;;3.47;;
215;SDS011;45701;48.81287245;9.14186865;2022-07-18T02:51:52;4.60;;;3.17;;
215;SDS011;45701;48.81287245;9.14186865;2022-07-18T02:54:19;9.77;;;3.77;;
215;SDS011;45701;48.81287245;9.14186865;2022-07-18T02:56:46;7.90;;;3.47;;
215;SDS011;45701;48.81287245;9.14186865;2022-07-18T02:59:13;5.67;;;3.73;;
215;SDS011;45701;48.81287245;9.14186865;2022-07-18T03:01:39;7.13;;;3.83;;
215;SDS011;45701;48.81287245;9.14186865;2022-07-18T03:04:07;8.90;;;3.80;;
215;SDS011;45701;48.81287245;9.14186865;2022-07-18T03:06:34;6.70;;;3.90;;
215;SDS011;45701;48.81287245;9.14186865;2022-07-18T03:09:01;11.80;;;3.90;;
215;SDS011;45701;48.81287245;9.14186865;2022-07-18T03:11:28;8.87;;;3.90;;
215;SDS011;45701;48.81287245;9.14186865;2022-07-18T03:13:55;8.63;;;3.67;;
215;SDS011;45701;48.81287245;9.14186865;2022-07-18T03:16:22;9.30;;;3.87;;
215;SDS011;45701;48.81287245;9.14186865;2022-07-18T03:18:49;6.23;;;3.50;;
215;SDS011;45701;48.81287245;9.14186865;2022-07-18T03:21:17;12.10;;;4.10;;
215;SDS011;45701;48.81287245;9.14186865;2022-07-18T03:23:43;6.20;;;3.60;;
215;SDS011;45701;48.81287245;9.14186865;2022-07-18T03:26:10;8.73;;;3.60;;
215;SDS011;45701;48.81287245;9.14186865;2022-07-18T03:28:37;8.80;;;3.60;;
215;SDS011;45701;48.81287245;9.14186865;2022-07-18T03:31:03;6.30;;;3.43;;
215;SDS011;45701;48.81287245;9.14186865;2022-07-18T03:33:30;8.20;;;3.73;;
215;SDS011;45701;48.81287245;9.14186865;2022-07-18T03:35:57;8.73;;;3.50;;
215;SDS011;45701;48.81287245;9.14186865;2022-07-18T03:38:25;7.30;;;3.80;;
215;SDS011;45701;48.81287245;9.14186865;2022-07-18T03:40:52;6.50;;;3.50;;
215;SDS011;45701;48.81287245;9.14186865;2022-07-18T03:43:19;7.57;;;3.93;;
215;SDS011;45701;48.81287245;9.14186865;2022-07-18T03:45:46;7.33;;;3.80;;
215;SDS011;45701;48.81287245;9.14186865;2022-07-18T03:48:13;9.43;;;3.90;;
215;SDS011;45701;48.81287245;9.14186865;2022-07-18T03:50:40;9.13;;;4.10;;
215;SDS011;45701;48.81287245;9.14186865;2022-07-18T03:53:07;6.00;;;3.67;;
215;SDS011;45701;48.81287245;9.14186865;2022-07-18T03:55:35;6.10;;;3.97;;
215;SDS011;45701;48.81287245;9.14186865;2022-07-18T03:58:01;10.03;;;4.30;;
215;SDS011;45701;48.81287245;9.14186865;2022-07-18T04:00:28;6.90;;;4.30;;
215;SDS011;45701;48.81287245;9.14186865;2022-07-18T04:02:55;7.40;;;3.90;;
215;SDS011;45701;48.81287245;9.14186865;2022-07-18T04:05:22;9.07;;;4.50;;
215;SDS011;45701;48.81287245;9.14186865;2022-07-18T04:07:48;7.50;;;4.20;;
215;SDS011;45701;48.81287245;9.14186865;2022-07-18T04:10:15;7.70;;;4.60;;
215;SDS011;45701;48.81287245;9.14186865;2022-07-18T04:12:47;7.50;;;4.93;;
215;SDS011;45701;48.81287245;9.14186865;2022-07-18T04:15:15;8.20;;;4.87;;
215;SDS011;45701;48.81287245;9.14186865;2022-07-18T04:17:42;9.20;;;4.80;;
215;SDS011;45701;48.81287245;9.14186865;2022-07-18T04:20:09;7.93;;;4.53;;
215;SDS011;45701;48.81287245;9.14186865;2022-07-18T04:22:43;9.43;;;4.80;;
215;SDS011;45701;48.81287245;9.14186865;2022-07-18T04:25:11;7.53;;;4.80;;
215;SDS011;45701;48.81287245;9.14186865;2022-07-18T04:27:38;9.47;;;4.80;;
215;SDS011;45701;48.81287245;9.14186865;2022-07-18T04:30:07;13.07;;;4.50;;
215;SDS011;45701;48.81287245;9.14186865;2022-07-18T04:32:34;9.83;;;4.60;;
215;SDS011;45701;48.81287245;9.14186865;2022-07-18T04:35:01;7.27;;;4.30;;
215;SDS011;45701;48.81287245;9.14186865;2022-07-18T04:37:29;9.87;;;4.20;;
215;SDS011;45701;48.81287245;9.14186865;2022-07-18T04:39:57;11.20;;;4.43;;
215;SDS011;45701;48.81287245;9.14186865;2022-07-18T04:42:24;13.23;;;4.27;;
215;SDS011;45701;48.81287245;9.14186865;2022-07-18T04:44:51;13.53;;;4.43;;
215;SDS011;45701;48.81287245;9.14186865;2022-07-18T04:47:19;11.80;;;4.27;;
215;SDS011;45701;48.81287245;9.14186865;2022-07-18T04:49:45;9.20;;;4.50;;
215;SDS011;45701;48.81287245;9.14186865;2022-07-18T04:52:12;7.73;;;4.60;;
215;SDS011;45701;48.81287245;9.14186865;2022-07-18T04:54:39;13.17;;;4.20;;
215;SDS011;45701;48.81287245;9.14186865;2022-07-18T04:57:05;7.97;;;4.00;;
215;SDS011;45701;48.81287245;9.14186865;2022-07-18T04:59:33;11.90;;;4.23;;
215;SDS011;45701;48.81287245;9.14186865;2022-07-18T05:02:00;10.77;;;4.27;;
215;SDS011;45701;48.81287245;9.14186865;2022-07-18T05:04:28;8.37;;;4.00;;
215;SDS011;45701;48.81287245;9.14186865;2022-07-18T05:06:55;8.23;;;4.07;;
215;SDS011;45701;48.81287245;9.14186865;2022-07-18T05:09:22;5.97;;;3.87;;
215;SDS011;45701;48.81287245;9.14186865;2022-07-18T05:11:49;8.63;;;4.10;;
215;SDS011;45701;48.81287245;9.14186865;2022-07-18T05:14:15;15.50;;;4.40;;
215;SDS011;45701;48.81287245;9.14186865;2022-07-18T05:16:42;9.00;;;4.03;;
215;SDS011;45701;48.81287245;9.14186865;2022-07-18T05:19:09;8.03;;;4.13;;
215;SDS011;45701;48.81287245;9.14186865;2022-07-18T05:21:37;10.10;;;4.47;;
215;SDS011;45701;48.81287245;9.14186865;2022-07-18T05:24:03;8.00;;;4.07;;
215;SDS011;45701;48.81287245;9.14186865;2022-07-18T05:26:30;8.43;;;4.20;;
215;SDS011;45701;48.81287245;9.14186865;2022-07-18T05:28:57;10.27;;;4.50;;
215;SDS011;45701;48.81287245;9.14186865;2022-07-18T05:31:24;9.00;;;4.77;;
215;SDS011;45701;48.81287245;9.14186865;2022-07-18T05:33:51;10.00;;;4.97;;
215;SDS011;45701;48.81287245;9.14186865;2022-07-18T05:36:17;7.10;;;4.50;;
215;SDS011;45701;48.81287245;9.14186865;2022-07-18T05:38:45;7.27;;;4.80;;
215;SDS011;45701;48.81287245;9.14186865;2022-07-18T05:41:12;8.43;;;4.60;;
215;SDS011;45701;48.81287245;9.14186865;2022-07-18T05:43:39;8.83;;;4.83;;
215;SDS011;45701;48.81287245;9.14186865;2022-07-18T05:46:06;8.47;;;4.70;;
215;SDS011;45701;48.81287245;9.14186865;2022-07-18T05:48:33;9.00;;;5.20;;
215;SDS011;45701;48.81287245;9.14186865;2022-07-18T05:51:00;13.47;;;5.23;;
215;SDS011;45701;48.81287245;9.14186865;2022-07-18T05:53:26;11.03;;;5.50;;
215;SDS011;45701;48.81287245;9.14186865;2022-07-18T05:55:54;12.07;;;5.17;;
215;SDS011;45701;48.81287245;9.14186865;2022-07-18T05:58:21;9.87;;;5.40;;
215;SDS011;45701;48.81287245;9.14186865;2022-07-18T06:00:48;11.70;;;6.00;;
215;SDS011;45701;48.81287245;9.14186865;2022-07-18T06:03:15;11.23;;;5.80;;
215;SDS011;45701;48.81287245;9.14186865;2022-07-18T06:05:42;16.63;;;5.37;;
215;SDS011;45701;48.81287245;9.14186865;2022-07-18T06:08:09;8.20;;;5.40;;
215;SDS011;45701;48.81287245;9.14186865;2022-07-18T06:10:35;14.93;;;5.20;;
215;SDS011;45701;48.81287245;9.14186865;2022-07-18T06:13:03;11.13;;;5.60;;
215;SDS011;45701;48.81287245;9.14186865;2022-07-18T06:15:30;12.03;;;5.13;;
215;SDS011;45701;48.81287245;9.14186865;2022-07-18T06:17:57;13.80;;;5.67;;
215;SDS011;45701;48.81287245;9.14186865;2022-07-18T06:20:24;14.30;;;5.50;;
215;SDS011;45701;48.81287245;9.14186865;2022-07-18T06:22:50;10.67;;;5.57;;
215;SDS011;45701;48.81287245;9.14186865;2022-07-18T06:25:17;15.80;;;5.73;;
215;SDS011;45701;48.81287245;9.14186865;2022-07-18T06:27:44;13.40;;;6.00;;
215;SDS011;45701;48.81287245;9.14186865;2022-07-18T06:30:12;13.33;;;5.57;;
215;SDS011;45701;48.81287245;9.14186865;2022-07-18T06:32:39;9.37;;;5.30;;
215;SDS011;45701;48.81287245;9.14186865;2022-07-18T06:35:07;18.83;;;6.07;;
215;SDS011;45701;48.81287245;9.14186865;2022-07-18T06:37:34;15.23;;;6.07;;
215;SDS011;45701;48.81287245;9.14186865;2022-07-18T06:40:01;13.70;;;5.33;;
215;SDS011;45701;48.81287245;9.14186865;2022-07-18T06:42:29;11.20;;;6.03;;
215;SDS011;45701;48.81287245;9.14186865;2022-07-18T06:44:55;15.83;;;5.70;;
215;SDS011;45701;48.81287245;9.14186865;2022-07-18T06:47:23;13.10;;;5.77;;
215;SDS011;45701;48.81287245;9.14186865;2022-07-18T06:49:50;13.10;;;5.93;;
215;SDS011;45701;48.81287245;9.14186865;2022-07-18T06:52:16;14.87;;;6.07;;
215;SDS011;45701;48.81287245;9.14186865;2022-07-18T06:54:43;13.97;;;5.87;;
215;SDS011;45701;48.81287245;9.14186865;2022-07-18T06:57:10;13.53;;;6.07;;
215;SDS011;45701;48.81287245;9.14186865;2022-07-18T06:59:36;11.20;;;5.10;;
215;SDS011;45701;48.81287245;9.14186865;2022-07-18T07:02:03;9.13;;;5.00;;
215;SDS011;45701;48.81287245;9.14186865;2022-07-18T07:04:31;11.93;;;5.90;;
215;SDS011;45701;48.81287245;9.14186865;2022-07-18T07:06:58;13.53;;;5.97;;
215;SDS011;45701;48.81287245;9.14186865;2022-07-18T07:09:25;10.90;;;5.07;;
215;SDS011;45701;48.81287245;9.14186865;2022-07-18T07:11:52;10.63;;;5.53;;
215;SDS011;45701;48.81287245;9.14186865;2022-07-18T07:14:18;17.07;;;5.60;;
215;SDS011;45701;48.81287245;9.14186865;2022-07-18T07:16:45;9.90;;;5.27;;
215;SDS011;45701;48.81287245;9.14186865;2022-07-18T07:19:12;9.43;;;5.00;;
215;SDS011;45701;48.81287245;9.14186865;2022-07-18T07:21:40;11.90;;;5.23;;
215;SDS011;45701;48.81287245;9.14186865;2022-07-18T07:24:06;12.23;;;5.87;;
215;SDS011;45701;48.81287245;9.14186865;2022-07-18T07:26:33;14.13;;;6.00;;
215;SDS011;45701;48.81287245;9.14186865;2022-07-18T07:29:00;11.40;;;5.80;;
215;SDS011;45701;48.81287245;9.14186865;2022-07-18T07:31:27;17.60;;;5.23;;
215;SDS011;45701;48.81287245;9.14186865;2022-07-18T07:33:53;17.00;;;5.07;;
215;SDS011;45701;48.81287245;9.14186865;2022-07-18T07:36:20;11.93;;;4.97;;
215;SDS011;45701;48.81287245;9.14186865;2022-07-18T07:38:49;13.60;;;5.60;;
215;SDS011;45701;48.81287245;9.14186865;2022-07-18T07:41:15;14.10;;;5.20;;
215;SDS011;45701;48.81287245;9.14186865;2022-07-18T07:43:42;14.20;;;5.80;;
215;SDS011;45701;48.81287245;9.14186865;2022-07-18T07:46:09;11.43;;;5.20;;
215;SDS011;45701;48.81287245;9.14186865;2022-07-18T07:48:37;12.47;;;5.33;;
215;SDS011;45701;48.81287245;9.14186865;2022-07-18T07:51:04;15.37;;;5.50;;
215;SDS011;45701;48.81287245;9.14186865;2022-07-18T07:53:31;11.40;;;5.60;;
215;SDS011;45701;48.81287245;9.14186865;2022-07-18T07:55:59;9.73;;;4.50;;
215;SDS011;45701;48.81287245;9.14186865;2022-07-18T07:58:25;7.60;;;4.30;;
215;SDS011;45701;48.81287245;9.14186865;2022-07-18T08:00:52;14.47;;;5.30;;
215;SDS011;45701;48.81287245;9.14186865;2022-07-18T08:03:19;9.63;;;5.43;;
215;SDS011;45701;48.81287245;9.14186865;2022-07-18T08:05:46;14.50;;;5.53;;
215;SDS011;45701;48.81287245;9.14186865;2022-07-18T08:08:14;13.17;;;4.87;;
215;SDS011;45701;48.81287245;9.14186865;2022-07-18T08:10:41;9.43;;;4.70;;
215;SDS011;45701;48.81287245;9.14186865;2022-07-18T08:13:09;13.23;;;5.50;;
215;SDS011;45701;48.81287245;9.14186865;2022-07-18T08:15:37;12.30;;;5.53;;
215;SDS011;45701;48.81287245;9.14186865;2022-07-18T08:18:04;12.97;;;5.90;;
215;SDS011;45701;48.81287245;9.14186865;2022-07-18T08:20:30;10.13;;;5.77;;
215;SDS011;45701;48.81287245;9.14186865;2022-07-18T08:22:59;11.13;;;5.53;;
215;SDS011;45701;48.81287245;9.14186865;2022-07-18T08:25:27;13.20;;;5.40;;
215;SDS011;45701;48.81287245;9.14186865;2022-07-18T08:27:55;8.70;;;5.30;;
215;SDS011;45701;48.81287245;9.14186865;2022-07-18T08:30:23;17.00;;;5.17;;
215;SDS011;45701;48.81287245;9.14186865;2022-07-18T08:32:50;17.37;;;5.10;;
215;SDS011;45701;48.81287245;9.14186865;2022-07-18T08:35:16;26.67;;;5.57;;
215;SDS011;45701;48.81287245;9.14186865;2022-07-18T08:37:43;12.43;;;5.13;;
215;SDS011;45701;48.81287245;9.14186865;2022-07-18T08:40:10;14.63;;;5.50;;
215;SDS011;45701;48.81287245;9.14186865;2022-07-18T08:42:37;7.87;;;5.37;;
215;SDS011;45701;48.81287245;9.14186865;2022-07-18T08:45:04;13.80;;;5.30;;
215;SDS011;45701;48.81287245;9.14186865;2022-07-18T08:47:33;13.13;;;5.20;;
215;SDS011;45701;48.81287245;9.14186865;2022-07-18T08:50:00;8.80;;;5.40;;
215;SDS011;45701;48.81287245;9.14186865;2022-07-18T08:52:28;9.67;;;5.30;;
215;SDS011;45701;48.81287245;9.14186865;2022-07-18T08:54:55;16.50;;;5.20;;
215;SDS011;45701;48.81287245;9.14186865;2022-07-18T08:57:22;15.70;;;5.40;;
215;SDS011;45701;48.81287245;9.14186865;2022-07-18T08:59:49;8.90;;;4.87;;
215;SDS011;45701;48.81287245;9.14186865;2022-07-18T09:02:16;8.30;;;4.63;;
215;SDS011;45701;48.81287245;9.14186865;2022-07-18T09:04:44;14.03;;;5.10;;
215;SDS011;45701;48.81287245;9.14186865;2022-07-18T09:07:23;9.03;;;4.83;;
215;SDS011;45701;48.81287245;9.14186865;2022-07-18T09:09:51;8.23;;;5.00;;
215;SDS011;45701;48.81287245;9.14186865;2022-07-18T09:12:19;9.43;;;5.20;;
215;SDS011;45701;48.81287245;9.14186865;2022-07-18T09:14:47;14.00;;;4.80;;
215;SDS011;45701;48.81287245;9.14186865;2022-07-18T09:17:14;5.60;;;4.13;;
215;SDS011;45701;48.81287245;9.14186865;2022-07-18T09:19:55;9.33;;;4.77;;
215;SDS011;45701;48.81287245;9.14186865;2022-07-18T09:22:24;11.60;;;4.00;;
215;SDS011;45701;48.81287245;9.14186865;2022-07-18T09:24:53;7.00;;;3.90;;
215;SDS011;45701;48.81287245;9.14186865;2022-07-18T09:27:22;8.20;;;4.40;;
215;SDS011;45701;48.81287245;9.14186865;2022-07-18T09:30:11;6.77;;;4.40;;
215;SDS011;45701;48.81287245;9.14186865;2022-07-18T09:32:43;9.47;;;4.17;;
215;SDS011;45701;48.81287245;9.14186865;2022-07-18T09:35:14;8.87;;;4.50;;
215;SDS011;45701;48.81287245;9.14186865;2022-07-18T09:37:51;7.70;;;3.83;;
215;SDS011;45701;48.81287245;9.14186865;2022-07-18T09:40:23;12.20;;;4.40;;
215;SDS011;45701;48.81287245;9.14186865;2022-07-18T09:42:51;8.07;;;4.37;;
215;SDS011;45701;48.81287245;9.14186865;2022-07-18T09:45:23;11.20;;;4.30;;
215;SDS011;45701;48.81287245;9.14186865;2022-07-18T09:47:52;7.80;;;4.20;;
215;SDS011;45701;48.81287245;9.14186865;2022-07-18T09:50:21;6.33;;;4.10;;
215;SDS011;45701;48.81287245;9.14186865;2022-07-18T09:52:57;13.40;;;4.53;;
215;SDS011;45701;48.81287245;9.14186865;2022-07-18T09:55:25;7.03;;;4.23;;
215;SDS011;45701;48.81287245;9.14186865;2022-07-18T09:57:59;6.67;;;4.10;;
215;SDS011;45701;48.81287245;9.14186865;2022-07-18T10:00:33;7.53;;;4.30;;
215;SDS011;45701;48.81287245;9.14186865;2022-07-18T10:03:01;7.37;;;4.37;;
215;SDS011;45701;48.81287245;9.14186865;2022-07-18T10:05:30;8.13;;;4.17;;
215;SDS011;45701;48.81287245;9.14186865;2022-07-18T10:07:58;6.40;;;4.40;;
215;SDS011;45701;48.81287245;9.14186865;2022-07-18T10:10:26;5.87;;;4.43;;
215;SDS011;45701;48.81287245;9.14186865;2022-07-18T10:12:54;9.70;;;4.33;;
215;SDS011;45701;48.81287245;9.14186865;2022-07-18T10:15:22;8.20;;;4.37;;
215;SDS011;45701;48.81287245;9.14186865;2022-07-18T10:17:50;6.00;;;4.30;;
215;SDS011;45701;48.81287245;9.14186865;2022-07-18T10:20:17;7.77;;;4.37;;
215;SDS011;45701;48.81287245;9.14186865;2022-07-18T10:22:51;6.27;;;4.20;;
215;SDS011;45701;48.81287245;9.14186865;2022-07-18T10:25:21;5.73;;;4.30;;
215;SDS011;45701;48.81287245;9.14186865;2022-07-18T10:27:49;6.23;;;3.93;;
215;SDS011;45701;48.81287245;9.14186865;2022-07-18T10:30:17;5.10;;;4.10;;
215;SDS011;45701;48.81287245;9.14186865;2022-07-18T10:32:54;6.20;;;4.20;;
215;SDS011;45701;48.81287245;9.14186865;2022-07-18T10:35:21;6.43;;;4.00;;
215;SDS011;45701;48.81287245;9.14186865;2022-07-18T10:38:29;6.77;;;4.10;;
215;SDS011;45701;48.81287245;9.14186865;2022-07-18T10:41:09;7.60;;;4.23;;
215;SDS011;45701;48.81287245;9.14186865;2022-07-18T10:43:38;6.67;;;4.33;;
215;SDS011;45701;48.81287245;9.14186865;2022-07-18T10:46:07;5.47;;;3.80;;
215;SDS011;45701;48.81287245;9.14186865;2022-07-18T10:48:47;5.23;;;3.93;;
215;SDS011;45701;48.81287245;9.14186865;2022-07-18T10:51:15;6.97;;;3.87;;
215;SDS011;45701;48.81287245;9.14186865;2022-07-18T10:53:57;5.80;;;4.10;;
215;SDS011;45701;48.81287245;9.14186865;2022-07-18T10:59:33;6.17;;;4.40;;
215;SDS011;45701;48.81287245;9.14186865;2022-07-18T11:02:00;5.70;;;3.80;;
215;SDS011;45701;48.81287245;9.14186865;2022-07-18T11:04:33;11.23;;;4.17;;
215;SDS011;45701;48.81287245;9.14186865;2022-07-18T11:07:03;6.73;;;4.10;;
215;SDS011;45701;48.81287245;9.14186865;2022-07-18T11:09:35;7.20;;;3.97;;
215;SDS011;45701;48.81287245;9.14186865;2022-07-18T11:15:00;8.73;;;4.30;;
215;SDS011;45701;48.81287245;9.14186865;2022-07-18T11:20:36;7.10;;;3.70;;
215;SDS011;45701;48.81287245;9.14186865;2022-07-18T11:23:12;5.80;;;3.70;;
215;SDS011;45701;48.81287245;9.14186865;2022-07-18T11:25:46;5.67;;;3.70;;
215;SDS011;45701;48.81287245;9.14186865;2022-07-18T11:28:13;5.17;;;3.50;;
215;SDS011;45701;48.81287245;9.14186865;2022-07-18T11:30:40;4.73;;;3.40;;
215;SDS011;45701;48.81287245;9.14186865;2022-07-18T11:33:19;7.30;;;3.67;;
215;SDS011;45701;48.81287245;9.14186865;2022-07-18T11:35:48;4.73;;;3.40;;
215;SDS011;45701;48.81287245;9.14186865;2022-07-18T11:38:15;6.43;;;3.30;;
215;SDS011;45701;48.81287245;9.14186865;2022-07-18T11:40:47;7.23;;;3.40;;
215;SDS011;45701;48.81287245;9.14186865;2022-07-18T11:43:21;5.70;;;3.43;;
215;SDS011;45701;48.81287245;9.14186865;2022-07-18T11:45:58;4.60;;;3.30;;
215;SDS011;45701;48.81287245;9.14186865;2022-07-18T11:48:26;5.67;;;3.57;;
215;SDS011;45701;48.81287245;9.14186865;2022-07-18T11:50:52;6.10;;;3.20;;
215;SDS011;45701;48.81287245;9.14186865;2022-07-18T11:53:19;5.10;;;3.63;;
215;SDS011;45701;48.81287245;9.14186865;2022-07-18T11:55:48;5.90;;;3.20;;
215;SDS011;45701;48.81287245;9.14186865;2022-07-18T11:58:15;5.80;;;3.60;;
215;SDS011;45701;48.81287245;9.14186865;2022-07-18T12:00:43;5.83;;;3.33;;
215;SDS011;45701;48.81287245;9.14186865;2022-07-18T12:03:12;7.63;;;3.50;;
215;SDS011;45701;48.81287245;9.14186865;2022-07-18T12:05:41;6.53;;;3.20;;
215;SDS011;45701;48.81287245;9.14186865;2022-07-18T12:11:07;4.80;;;3.10;;
215;SDS011;45701;48.81287245;9.14186865;2022-07-18T12:13:39;5.10;;;3.10;;
215;SDS011;45701;48.81287245;9.14186865;2022-07-18T12:16:06;4.67;;;3.20;;
215;SDS011;45701;48.81287245;9.14186865;2022-07-18T12:18:33;4.00;;;3.03;;
215;SDS011;45701;48.81287245;9.14186865;2022-07-18T12:21:06;7.93;;;3.23;;
215;SDS011;45701;48.81287245;9.14186865;2022-07-18T12:23:33;6.90;;;3.03;;
215;SDS011;45701;48.81287245;9.14186865;2022-07-18T12:26:00;6.60;;;2.97;;
215;SDS011;45701;48.81287245;9.14186865;2022-07-18T12:28:28;5.23;;;3.27;;
215;SDS011;45701;48.81287245;9.14186865;2022-07-18T12:30:55;5.83;;;3.00;;
215;SDS011;45701;48.81287245;9.14186865;2022-07-18T12:33:22;6.37;;;3.47;;
215;SDS011;45701;48.81287245;9.14186865;2022-07-18T12:35:54;6.30;;;3.00;;
215;SDS011;45701;48.81287245;9.14186865;2022-07-18T12:38:22;5.00;;;3.20;;
215;SDS011;45701;48.81287245;9.14186865;2022-07-18T12:40:49;5.83;;;3.30;;
215;SDS011;45701;48.81287245;9.14186865;2022-07-18T12:43:22;5.63;;;2.90;;
215;SDS011;45701;48.81287245;9.14186865;2022-07-18T12:45:51;4.57;;;3.30;;
215;SDS011;45701;48.81287245;9.14186865;2022-07-18T12:48:19;7.07;;;3.50;;
215;SDS011;45701;48.81287245;9.14186865;2022-07-18T12:50:46;6.00;;;3.30;;
215;SDS011;45701;48.81287245;9.14186865;2022-07-18T12:53:20;5.93;;;3.40;;
215;SDS011;45701;48.81287245;9.14186865;2022-07-18T12:55:47;5.10;;;3.10;;
215;SDS011;45701;48.81287245;9.14186865;2022-07-18T12:58:14;5.90;;;3.13;;
215;SDS011;45701;48.81287245;9.14186865;2022-07-18T13:00:41;5.57;;;3.00;;
215;SDS011;45701;48.81287245;9.14186865;2022-07-18T13:03:10;4.67;;;3.07;;
215;SDS011;45701;48.81287245;9.14186865;2022-07-18T13:05:37;4.87;;;3.00;;
215;SDS011;45701;48.81287245;9.14186865;2022-07-18T13:08:04;6.10;;;3.20;;
215;SDS011;45701;48.81287245;9.14186865;2022-07-18T13:10:32;7.53;;;3.30;;
215;SDS011;45701;48.81287245;9.14186865;2022-07-18T13:13:00;7.30;;;3.40;;
215;SDS011;45701;48.81287245;9.14186865;2022-07-18T13:15:27;5.77;;;3.53;;
215;SDS011;45701;48.81287245;9.14186865;2022-07-18T13:17:54;4.73;;;3.10;;
215;SDS011;45701;48.81287245;9.14186865;2022-07-18T13:20:22;8.60;;;3.00;;
215;SDS011;45701;48.81287245;9.14186865;2022-07-18T13:22:50;7.77;;;3.50;;
215;SDS011;45701;48.81287245;9.14186865;2022-07-18T13:25:16;9.60;;;3.40;;
215;SDS011;45701;48.81287245;9.14186865;2022-07-18T13:27:43;5.50;;;2.93;;